sensor_id;sensor_type;location;lat;lon;timestamp;P1;durP1;ratioP1;P2;durP2;ratioP2
54899;SDS011;40801;41.924;25.562;2023-05-07T00:00:09;7.50;;;6.82;;
54899;SDS011;40801;41.924;25.562;2023-05-07T00:02:36;7.15;;;6.07;;
54899;SDS011;40801;41.924;25.562;2023-05-07T00:05:02;6.82;;;6.18;;
54899;SDS011;40801;41.924;25.562;2023-05-07T00:07:28;7.28;;;6.53;;
54899;SDS011;40801;41.924;25.562;2023-05-07T00:09:53;7.35;;;6.30;;
54899;SDS011;40801;41.924;25.562;2023-05-07T00:12:19;6.93;;;6.18;;
54899;SDS011;40801;41.924;25.562;2023-05-07T00:14:44;6.55;;;5.95;;
54899;SDS011;40801;41.924;25.562;2023-05-07T00:17:10;6.30;;;5.90;;
54899;SDS011;40801;41.924;25.562;2023-05-07T00:19:36;6.57;;;5.90;;
54899;SDS011;40801;41.924;25.562;2023-05-07T00:22:01;9.43;;;6.63;;
54899;SDS011;40801;41.924;25.562;2023-05-07T00:24:27;8.20;;;7.55;;
54899;SDS011;40801;41.924;25.562;2023-05-07T00:26:52;6.97;;;6.28;;
54899;SDS011;40801;41.924;25.562;2023-05-07T00:29:18;6.68;;;6.10;;
54899;SDS011;40801;41.924;25.562;2023-05-07T00:31:43;8.77;;;6.95;;
54899;SDS011;40801;41.924;25.562;2023-05-07T00:34:09;6.25;;;5.72;;
54899;SDS011;40801;41.924;25.562;2023-05-07T00:36:34;6.90;;;6.18;;
54899;SDS011;40801;41.924;25.562;2023-05-07T00:39:00;7.68;;;6.97;;
54899;SDS011;40801;41.924;25.562;2023-05-07T00:41:27;7.93;;;6.70;;
54899;SDS011;40801;41.924;25.562;2023-05-07T00:43:52;7.32;;;6.65;;
54899;SDS011;40801;41.924;25.562;2023-05-07T00:46:19;7.07;;;6.38;;
54899;SDS011;40801;41.924;25.562;2023-05-07T00:48:45;7.60;;;6.82;;
54899;SDS011;40801;41.924;25.562;2023-05-07T00:51:11;6.70;;;6.05;;
54899;SDS011;40801;41.924;25.562;2023-05-07T00:53:37;9.82;;;7.32;;
54899;SDS011;40801;41.924;25.562;2023-05-07T00:56:04;14.10;;;6.50;;
54899;SDS011;40801;41.924;25.562;2023-05-07T00:58:31;7.40;;;6.68;;
54899;SDS011;40801;41.924;25.562;2023-05-07T01:00:57;9.63;;;8.00;;
54899;SDS011;40801;41.924;25.562;2023-05-07T01:03:23;8.20;;;6.95;;
54899;SDS011;40801;41.924;25.562;2023-05-07T01:05:48;8.20;;;7.50;;
54899;SDS011;40801;41.924;25.562;2023-05-07T01:08:15;7.43;;;6.63;;
54899;SDS011;40801;41.924;25.562;2023-05-07T01:10:41;7.75;;;6.97;;
54899;SDS011;40801;41.924;25.562;2023-05-07T01:13:11;7.78;;;7.18;;
54899;SDS011;40801;41.924;25.562;2023-05-07T01:18:03;8.23;;;7.38;;
54899;SDS011;40801;41.924;25.562;2023-05-07T01:20:29;13.23;;;7.60;;
54899;SDS011;40801;41.924;25.562;2023-05-07T01:22:55;8.65;;;7.30;;
54899;SDS011;40801;41.924;25.562;2023-05-07T01:25:22;8.18;;;7.50;;
54899;SDS011;40801;41.924;25.562;2023-05-07T01:27:48;8.73;;;7.93;;
54899;SDS011;40801;41.924;25.562;2023-05-07T01:30:13;8.30;;;7.50;;
54899;SDS011;40801;41.924;25.562;2023-05-07T01:32:43;8.50;;;7.47;;
54899;SDS011;40801;41.924;25.562;2023-05-07T01:35:10;8.55;;;7.63;;
54899;SDS011;40801;41.924;25.562;2023-05-07T01:37:37;8.57;;;7.88;;
54899;SDS011;40801;41.924;25.562;2023-05-07T01:40:04;8.20;;;7.40;;
54899;SDS011;40801;41.924;25.562;2023-05-07T01:42:32;7.60;;;6.90;;
54899;SDS011;40801;41.924;25.562;2023-05-07T01:44:58;8.52;;;7.65;;
54899;SDS011;40801;41.924;25.562;2023-05-07T01:47:23;8.25;;;7.45;;
54899;SDS011;40801;41.924;25.562;2023-05-07T01:49:50;8.70;;;7.80;;
54899;SDS011;40801;41.924;25.562;2023-05-07T01:52:15;7.82;;;7.20;;
54899;SDS011;40801;41.924;25.562;2023-05-07T01:54:41;7.30;;;6.60;;
54899;SDS011;40801;41.924;25.562;2023-05-07T01:57:07;8.93;;;8.02;;
54899;SDS011;40801;41.924;25.562;2023-05-07T01:59:32;8.07;;;7.38;;
54899;SDS011;40801;41.924;25.562;2023-05-07T02:01:58;8.68;;;7.75;;
54899;SDS011;40801;41.924;25.562;2023-05-07T02:04:23;8.27;;;7.57;;
54899;SDS011;40801;41.924;25.562;2023-05-07T02:06:49;8.60;;;7.82;;
54899;SDS011;40801;41.924;25.562;2023-05-07T02:09:15;9.63;;;7.45;;
54899;SDS011;40801;41.924;25.562;2023-05-07T02:11:41;8.27;;;7.47;;
54899;SDS011;40801;41.924;25.562;2023-05-07T02:14:06;9.38;;;7.00;;
54899;SDS011;40801;41.924;25.562;2023-05-07T02:16:31;7.75;;;7.00;;
54899;SDS011;40801;41.924;25.562;2023-05-07T02:18:57;7.93;;;7.22;;
54899;SDS011;40801;41.924;25.562;2023-05-07T02:21:23;9.20;;;8.15;;
54899;SDS011;40801;41.924;25.562;2023-05-07T02:23:49;8.80;;;8.00;;
54899;SDS011;40801;41.924;25.562;2023-05-07T02:26:15;8.27;;;7.55;;
54899;SDS011;40801;41.924;25.562;2023-05-07T02:28:40;8.13;;;7.43;;
54899;SDS011;40801;41.924;25.562;2023-05-07T02:31:06;8.70;;;7.65;;
54899;SDS011;40801;41.924;25.562;2023-05-07T02:33:31;9.77;;;8.75;;
54899;SDS011;40801;41.924;25.562;2023-05-07T02:36:04;11.57;;;8.45;;
54899;SDS011;40801;41.924;25.562;2023-05-07T02:38:33;9.05;;;8.15;;
54899;SDS011;40801;41.924;25.562;2023-05-07T02:40:59;8.80;;;7.93;;
54899;SDS011;40801;41.924;25.562;2023-05-07T02:43:24;9.73;;;8.85;;
54899;SDS011;40801;41.924;25.562;2023-05-07T02:45:59;8.55;;;7.78;;
54899;SDS011;40801;41.924;25.562;2023-05-07T02:48:33;8.00;;;7.20;;
54899;SDS011;40801;41.924;25.562;2023-05-07T02:50:59;8.40;;;7.68;;
54899;SDS011;40801;41.924;25.562;2023-05-07T02:53:25;8.90;;;8.00;;
54899;SDS011;40801;41.924;25.562;2023-05-07T02:55:52;10.00;;;7.78;;
54899;SDS011;40801;41.924;25.562;2023-05-07T02:58:18;8.30;;;7.70;;
54899;SDS011;40801;41.924;25.562;2023-05-07T03:00:43;9.35;;;8.40;;
54899;SDS011;40801;41.924;25.562;2023-05-07T03:03:09;8.77;;;8.00;;
54899;SDS011;40801;41.924;25.562;2023-05-07T03:05:35;9.38;;;8.45;;
54899;SDS011;40801;41.924;25.562;2023-05-07T03:08:01;8.73;;;7.93;;
54899;SDS011;40801;41.924;25.562;2023-05-07T03:10:26;9.50;;;8.63;;
54899;SDS011;40801;41.924;25.562;2023-05-07T03:12:52;8.82;;;8.02;;
54899;SDS011;40801;41.924;25.562;2023-05-07T03:15:17;9.18;;;8.38;;
54899;SDS011;40801;41.924;25.562;2023-05-07T03:17:42;9.38;;;8.38;;
54899;SDS011;40801;41.924;25.562;2023-05-07T03:20:08;13.25;;;8.02;;
54899;SDS011;40801;41.924;25.562;2023-05-07T03:22:34;8.48;;;7.63;;
54899;SDS011;40801;41.924;25.562;2023-05-07T03:25:00;8.88;;;8.07;;
54899;SDS011;40801;41.924;25.562;2023-05-07T03:27:25;8.77;;;7.85;;
54899;SDS011;40801;41.924;25.562;2023-05-07T03:29:51;8.60;;;7.90;;
54899;SDS011;40801;41.924;25.562;2023-05-07T03:32:16;8.77;;;8.02;;
54899;SDS011;40801;41.924;25.562;2023-05-07T03:34:41;8.35;;;7.55;;
54899;SDS011;40801;41.924;25.562;2023-05-07T03:37:07;7.93;;;7.00;;
54899;SDS011;40801;41.924;25.562;2023-05-07T03:39:32;8.40;;;7.60;;
54899;SDS011;40801;41.924;25.562;2023-05-07T03:41:58;8.20;;;7.53;;
54899;SDS011;40801;41.924;25.562;2023-05-07T03:44:23;9.35;;;8.25;;
54899;SDS011;40801;41.924;25.562;2023-05-07T03:46:49;8.23;;;7.53;;
54899;SDS011;40801;41.924;25.562;2023-05-07T03:49:14;8.60;;;7.63;;
54899;SDS011;40801;41.924;25.562;2023-05-07T03:51:39;10.52;;;8.07;;
54899;SDS011;40801;41.924;25.562;2023-05-07T03:54:05;9.68;;;7.78;;
54899;SDS011;40801;41.924;25.562;2023-05-07T03:56:30;8.50;;;7.72;;
54899;SDS011;40801;41.924;25.562;2023-05-07T03:58:56;7.40;;;6.80;;
54899;SDS011;40801;41.924;25.562;2023-05-07T04:01:21;7.80;;;7.18;;
54899;SDS011;40801;41.924;25.562;2023-05-07T04:03:47;7.90;;;7.13;;
54899;SDS011;40801;41.924;25.562;2023-05-07T04:06:12;7.30;;;6.55;;
54899;SDS011;40801;41.924;25.562;2023-05-07T04:08:38;7.20;;;6.60;;
54899;SDS011;40801;41.924;25.562;2023-05-07T04:11:03;8.13;;;7.30;;
54899;SDS011;40801;41.924;25.562;2023-05-07T04:13:29;7.68;;;6.97;;
54899;SDS011;40801;41.924;25.562;2023-05-07T04:15:55;7.63;;;7.00;;
54899;SDS011;40801;41.924;25.562;2023-05-07T04:18:21;8.10;;;6.50;;
54899;SDS011;40801;41.924;25.562;2023-05-07T04:20:47;7.13;;;6.43;;
54899;SDS011;40801;41.924;25.562;2023-05-07T04:23:13;6.63;;;6.07;;
54899;SDS011;40801;41.924;25.562;2023-05-07T04:25:38;7.60;;;6.60;;
54899;SDS011;40801;41.924;25.562;2023-05-07T04:28:03;7.07;;;6.57;;
54899;SDS011;40801;41.924;25.562;2023-05-07T04:30:29;6.45;;;5.75;;
54899;SDS011;40801;41.924;25.562;2023-05-07T04:32:55;5.93;;;5.43;;
54899;SDS011;40801;41.924;25.562;2023-05-07T04:35:21;7.50;;;6.80;;
54899;SDS011;40801;41.924;25.562;2023-05-07T04:37:47;7.65;;;6.90;;
54899;SDS011;40801;41.924;25.562;2023-05-07T04:40:12;6.75;;;6.25;;
54899;SDS011;40801;41.924;25.562;2023-05-07T04:42:38;12.75;;;6.93;;
54899;SDS011;40801;41.924;25.562;2023-05-07T04:45:04;6.70;;;6.10;;
54899;SDS011;40801;41.924;25.562;2023-05-07T04:47:30;6.53;;;5.93;;
54899;SDS011;40801;41.924;25.562;2023-05-07T04:49:55;6.10;;;5.63;;
54899;SDS011;40801;41.924;25.562;2023-05-07T04:52:22;6.07;;;5.40;;
54899;SDS011;40801;41.924;25.562;2023-05-07T04:54:47;6.75;;;6.03;;
54899;SDS011;40801;41.924;25.562;2023-05-07T04:57:12;7.43;;;6.72;;
54899;SDS011;40801;41.924;25.562;2023-05-07T04:59:38;7.05;;;6.45;;
54899;SDS011;40801;41.924;25.562;2023-05-07T05:02:03;10.18;;;6.88;;
54899;SDS011;40801;41.924;25.562;2023-05-07T05:04:31;7.70;;;7.10;;
54899;SDS011;40801;41.924;25.562;2023-05-07T05:06:57;9.07;;;7.40;;
54899;SDS011;40801;41.924;25.562;2023-05-07T05:09:23;8.82;;;8.02;;
54899;SDS011;40801;41.924;25.562;2023-05-07T05:11:48;8.18;;;7.38;;
54899;SDS011;40801;41.924;25.562;2023-05-07T05:14:13;8.18;;;7.20;;
54899;SDS011;40801;41.924;25.562;2023-05-07T05:16:39;10.77;;;7.65;;
54899;SDS011;40801;41.924;25.562;2023-05-07T05:19:04;7.63;;;6.82;;
54899;SDS011;40801;41.924;25.562;2023-05-07T05:21:30;6.78;;;6.18;;
54899;SDS011;40801;41.924;25.562;2023-05-07T05:23:56;7.82;;;7.13;;
54899;SDS011;40801;41.924;25.562;2023-05-07T05:26:22;7.47;;;6.78;;
54899;SDS011;40801;41.924;25.562;2023-05-07T05:28:47;8.05;;;7.22;;
54899;SDS011;40801;41.924;25.562;2023-05-07T05:31:12;10.27;;;7.40;;
54899;SDS011;40801;41.924;25.562;2023-05-07T05:33:39;8.25;;;7.22;;
54899;SDS011;40801;41.924;25.562;2023-05-07T05:36:05;7.53;;;6.90;;
54899;SDS011;40801;41.924;25.562;2023-05-07T05:38:31;7.38;;;6.57;;
54899;SDS011;40801;41.924;25.562;2023-05-07T05:40:56;7.22;;;6.63;;
54899;SDS011;40801;41.924;25.562;2023-05-07T05:43:22;8.27;;;7.35;;
54899;SDS011;40801;41.924;25.562;2023-05-07T05:45:47;7.63;;;6.93;;
54899;SDS011;40801;41.924;25.562;2023-05-07T05:48:13;6.80;;;6.20;;
54899;SDS011;40801;41.924;25.562;2023-05-07T05:50:38;8.13;;;7.38;;
54899;SDS011;40801;41.924;25.562;2023-05-07T05:53:03;7.47;;;6.88;;
54899;SDS011;40801;41.924;25.562;2023-05-07T05:55:29;7.30;;;6.65;;
54899;SDS011;40801;41.924;25.562;2023-05-07T05:57:54;6.57;;;6.07;;
54899;SDS011;40801;41.924;25.562;2023-05-07T06:00:21;7.47;;;6.88;;
54899;SDS011;40801;41.924;25.562;2023-05-07T06:02:47;7.53;;;6.63;;
54899;SDS011;40801;41.924;25.562;2023-05-07T06:05:13;7.20;;;6.60;;
54899;SDS011;40801;41.924;25.562;2023-05-07T06:07:38;8.73;;;6.55;;
54899;SDS011;40801;41.924;25.562;2023-05-07T06:10:04;7.28;;;6.65;;
54899;SDS011;40801;41.924;25.562;2023-05-07T06:12:30;6.75;;;6.20;;
54899;SDS011;40801;41.924;25.562;2023-05-07T06:14:55;7.10;;;6.43;;
54899;SDS011;40801;41.924;25.562;2023-05-07T06:17:21;6.20;;;5.60;;
54899;SDS011;40801;41.924;25.562;2023-05-07T06:19:46;6.65;;;5.70;;
54899;SDS011;40801;41.924;25.562;2023-05-07T06:22:11;6.40;;;5.90;;
54899;SDS011;40801;41.924;25.562;2023-05-07T06:24:37;5.80;;;5.30;;
54899;SDS011;40801;41.924;25.562;2023-05-07T06:27:02;7.40;;;6.05;;
54899;SDS011;40801;41.924;25.562;2023-05-07T06:29:28;7.00;;;6.15;;
54899;SDS011;40801;41.924;25.562;2023-05-07T06:31:56;6.55;;;5.78;;
54899;SDS011;40801;41.924;25.562;2023-05-07T06:34:21;5.70;;;5.07;;
54899;SDS011;40801;41.924;25.562;2023-05-07T06:36:47;5.60;;;5.00;;
54899;SDS011;40801;41.924;25.562;2023-05-07T06:39:12;7.45;;;6.75;;
54899;SDS011;40801;41.924;25.562;2023-05-07T06:41:38;7.03;;;6.30;;
54899;SDS011;40801;41.924;25.562;2023-05-07T06:44:04;6.22;;;5.72;;
54899;SDS011;40801;41.924;25.562;2023-05-07T06:46:29;7.47;;;6.18;;
54899;SDS011;40801;41.924;25.562;2023-05-07T06:48:55;7.35;;;5.40;;
54899;SDS011;40801;41.924;25.562;2023-05-07T06:51:21;8.45;;;6.50;;
54899;SDS011;40801;41.924;25.562;2023-05-07T06:53:47;6.68;;;5.40;;
54899;SDS011;40801;41.924;25.562;2023-05-07T06:56:12;6.47;;;5.88;;
54899;SDS011;40801;41.924;25.562;2023-05-07T06:58:38;8.45;;;6.15;;
54899;SDS011;40801;41.924;25.562;2023-05-07T07:01:03;6.15;;;5.57;;
54899;SDS011;40801;41.924;25.562;2023-05-07T07:03:29;7.18;;;5.45;;
54899;SDS011;40801;41.924;25.562;2023-05-07T07:05:54;5.75;;;5.15;;
54899;SDS011;40801;41.924;25.562;2023-05-07T07:08:20;5.75;;;5.25;;
54899;SDS011;40801;41.924;25.562;2023-05-07T07:10:47;6.97;;;5.57;;
54899;SDS011;40801;41.924;25.562;2023-05-07T07:13:12;6.15;;;5.50;;
54899;SDS011;40801;41.924;25.562;2023-05-07T07:15:38;5.70;;;5.20;;
54899;SDS011;40801;41.924;25.562;2023-05-07T07:18:04;4.38;;;3.97;;
54899;SDS011;40801;41.924;25.562;2023-05-07T07:20:29;8.50;;;7.40;;
54899;SDS011;40801;41.924;25.562;2023-05-07T07:22:54;5.25;;;4.78;;
54899;SDS011;40801;41.924;25.562;2023-05-07T07:25:20;7.07;;;6.38;;
54899;SDS011;40801;41.924;25.562;2023-05-07T07:27:45;4.88;;;4.47;;
54899;SDS011;40801;41.924;25.562;2023-05-07T07:30:11;8.52;;;4.80;;
54899;SDS011;40801;41.924;25.562;2023-05-07T07:32:37;6.47;;;4.65;;
54899;SDS011;40801;41.924;25.562;2023-05-07T07:35:02;5.28;;;4.78;;
54899;SDS011;40801;41.924;25.562;2023-05-07T07:37:28;5.35;;;4.88;;
54899;SDS011;40801;41.924;25.562;2023-05-07T07:39:53;7.97;;;4.78;;
54899;SDS011;40801;41.924;25.562;2023-05-07T07:42:19;25.20;;;6.50;;
54899;SDS011;40801;41.924;25.562;2023-05-07T07:44:44;6.53;;;4.90;;
54899;SDS011;40801;41.924;25.562;2023-05-07T07:47:10;5.47;;;4.97;;
54899;SDS011;40801;41.924;25.562;2023-05-07T07:49:35;4.60;;;4.20;;
54899;SDS011;40801;41.924;25.562;2023-05-07T07:52:01;5.40;;;4.00;;
54899;SDS011;40801;41.924;25.562;2023-05-07T07:54:26;4.32;;;4.00;;
54899;SDS011;40801;41.924;25.562;2023-05-07T07:56:51;4.82;;;4.20;;
54899;SDS011;40801;41.924;25.562;2023-05-07T07:59:17;4.82;;;4.43;;
54899;SDS011;40801;41.924;25.562;2023-05-07T08:01:44;7.60;;;4.22;;
54899;SDS011;40801;41.924;25.562;2023-05-07T08:04:09;5.75;;;4.50;;
54899;SDS011;40801;41.924;25.562;2023-05-07T08:06:35;5.15;;;4.55;;
54899;SDS011;40801;41.924;25.562;2023-05-07T08:09:00;4.57;;;4.18;;
54899;SDS011;40801;41.924;25.562;2023-05-07T08:11:26;4.80;;;4.50;;
54899;SDS011;40801;41.924;25.562;2023-05-07T08:13:52;5.70;;;4.13;;
54899;SDS011;40801;41.924;25.562;2023-05-07T08:16:18;6.22;;;4.97;;
54899;SDS011;40801;41.924;25.562;2023-05-07T08:18:44;5.68;;;4.40;;
54899;SDS011;40801;41.924;25.562;2023-05-07T08:21:10;4.50;;;3.63;;
54899;SDS011;40801;41.924;25.562;2023-05-07T08:23:35;5.45;;;3.97;;
54899;SDS011;40801;41.924;25.562;2023-05-07T08:26:01;6.15;;;4.35;;
54899;SDS011;40801;41.924;25.562;2023-05-07T08:28:26;4.20;;;3.90;;
54899;SDS011;40801;41.924;25.562;2023-05-07T08:30:52;4.35;;;3.95;;
54899;SDS011;40801;41.924;25.562;2023-05-07T08:33:17;3.75;;;3.35;;
54899;SDS011;40801;41.924;25.562;2023-05-07T08:35:42;3.40;;;3.10;;
54899;SDS011;40801;41.924;25.562;2023-05-07T08:38:08;5.57;;;3.80;;
54899;SDS011;40801;41.924;25.562;2023-05-07T08:40:37;4.28;;;3.42;;
54899;SDS011;40801;41.924;25.562;2023-05-07T08:43:05;3.65;;;3.17;;
54899;SDS011;40801;41.924;25.562;2023-05-07T08:45:31;3.25;;;3.03;;
54899;SDS011;40801;41.924;25.562;2023-05-07T08:47:59;2.92;;;2.80;;
54899;SDS011;40801;41.924;25.562;2023-05-07T08:50:28;2.97;;;2.78;;
54899;SDS011;40801;41.924;25.562;2023-05-07T08:52:53;3.42;;;3.13;;
54899;SDS011;40801;41.924;25.562;2023-05-07T08:55:19;3.38;;;2.72;;
54899;SDS011;40801;41.924;25.562;2023-05-07T08:57:45;3.28;;;3.00;;
54899;SDS011;40801;41.924;25.562;2023-05-07T09:00:12;4.30;;;3.33;;
54899;SDS011;40801;41.924;25.562;2023-05-07T09:02:38;5.05;;;4.18;;
54899;SDS011;40801;41.924;25.562;2023-05-07T09:05:03;3.42;;;3.13;;
54899;SDS011;40801;41.924;25.562;2023-05-07T09:07:29;3.55;;;3.03;;
54899;SDS011;40801;41.924;25.562;2023-05-07T09:09:55;3.33;;;3.13;;
54899;SDS011;40801;41.924;25.562;2023-05-07T09:12:22;4.43;;;2.85;;
54899;SDS011;40801;41.924;25.562;2023-05-07T09:14:48;3.05;;;2.85;;
54899;SDS011;40801;41.924;25.562;2023-05-07T09:17:17;2.85;;;2.65;;
54899;SDS011;40801;41.924;25.562;2023-05-07T09:19:46;3.35;;;3.05;;
54899;SDS011;40801;41.924;25.562;2023-05-07T09:22:12;3.35;;;3.00;;
54899;SDS011;40801;41.924;25.562;2023-05-07T09:24:38;3.13;;;2.78;;
54899;SDS011;40801;41.924;25.562;2023-05-07T09:27:06;4.10;;;2.75;;
54899;SDS011;40801;41.924;25.562;2023-05-07T09:29:34;5.18;;;3.03;;
54899;SDS011;40801;41.924;25.562;2023-05-07T09:32:03;3.83;;;3.00;;
54899;SDS011;40801;41.924;25.562;2023-05-07T09:34:31;3.33;;;2.55;;
54899;SDS011;40801;41.924;25.562;2023-05-07T09:37:03;3.83;;;3.53;;
54899;SDS011;40801;41.924;25.562;2023-05-07T09:39:42;3.70;;;2.95;;
54899;SDS011;40801;41.924;25.562;2023-05-07T09:42:09;3.08;;;2.78;;
54899;SDS011;40801;41.924;25.562;2023-05-07T09:44:35;4.93;;;3.20;;
54899;SDS011;40801;41.924;25.562;2023-05-07T09:47:01;3.58;;;3.20;;
54899;SDS011;40801;41.924;25.562;2023-05-07T09:49:30;4.82;;;3.08;;
54899;SDS011;40801;41.924;25.562;2023-05-07T09:52:00;3.67;;;2.85;;
54899;SDS011;40801;41.924;25.562;2023-05-07T09:54:26;4.55;;;3.03;;
54899;SDS011;40801;41.924;25.562;2023-05-07T09:56:55;4.25;;;3.08;;
54899;SDS011;40801;41.924;25.562;2023-05-07T09:59:22;2.88;;;2.63;;
54899;SDS011;40801;41.924;25.562;2023-05-07T10:01:47;3.13;;;2.83;;
54899;SDS011;40801;41.924;25.562;2023-05-07T10:04:14;2.92;;;2.72;;
54899;SDS011;40801;41.924;25.562;2023-05-07T10:06:40;3.10;;;2.50;;
54899;SDS011;40801;41.924;25.562;2023-05-07T10:09:06;3.83;;;3.03;;
54899;SDS011;40801;41.924;25.562;2023-05-07T10:11:35;6.85;;;2.95;;
54899;SDS011;40801;41.924;25.562;2023-05-07T10:14:01;3.03;;;2.78;;
54899;SDS011;40801;41.924;25.562;2023-05-07T10:16:28;3.22;;;2.90;;
54899;SDS011;40801;41.924;25.562;2023-05-07T10:18:58;3.28;;;2.92;;
54899;SDS011;40801;41.924;25.562;2023-05-07T10:21:24;5.00;;;2.70;;
54899;SDS011;40801;41.924;25.562;2023-05-07T10:24:16;3.97;;;2.88;;
54899;SDS011;40801;41.924;25.562;2023-05-07T10:26:47;3.80;;;2.72;;
54899;SDS011;40801;41.924;25.562;2023-05-07T10:34:29;3.58;;;2.75;;
54899;SDS011;40801;41.924;25.562;2023-05-07T10:37:00;3.40;;;2.95;;
54899;SDS011;40801;41.924;25.562;2023-05-07T10:39:26;4.35;;;2.30;;
54899;SDS011;40801;41.924;25.562;2023-05-07T10:41:52;2.50;;;2.30;;
54899;SDS011;40801;41.924;25.562;2023-05-07T10:44:30;5.72;;;2.35;;
54899;SDS011;40801;41.924;25.562;2023-05-07T10:47:09;4.70;;;2.28;;
54899;SDS011;40801;41.924;25.562;2023-05-07T10:50:21;4.38;;;2.53;;
54899;SDS011;40801;41.924;25.562;2023-05-07T10:52:27;5.80;;;2.25;;
54899;SDS011;40801;41.924;25.562;2023-05-07T10:57:46;2.28;;;2.17;;
54899;SDS011;40801;41.924;25.562;2023-05-07T11:05:24;2.42;;;2.22;;
54899;SDS011;40801;41.924;25.562;2023-05-07T11:07:56;2.75;;;1.80;;
54899;SDS011;40801;41.924;25.562;2023-05-07T11:13:14;3.05;;;1.92;;
54899;SDS011;40801;41.924;25.562;2023-05-07T11:15:44;2.75;;;1.95;;
54899;SDS011;40801;41.924;25.562;2023-05-07T11:18:11;2.42;;;1.90;;
54899;SDS011;40801;41.924;25.562;2023-05-07T11:20:45;2.30;;;2.05;;
54899;SDS011;40801;41.924;25.562;2023-05-07T11:26:06;3.00;;;1.98;;
54899;SDS011;40801;41.924;25.562;2023-05-07T11:28:36;2.92;;;2.00;;
54899;SDS011;40801;41.924;25.562;2023-05-07T11:31:05;10.82;;;9.75;;
54899;SDS011;40801;41.924;25.562;2023-05-07T11:33:31;2.40;;;2.30;;
54899;SDS011;40801;41.924;25.562;2023-05-07T11:35:57;2.70;;;1.90;;
54899;SDS011;40801;41.924;25.562;2023-05-07T11:38:24;2.33;;;2.13;;
54899;SDS011;40801;41.924;25.562;2023-05-07T11:40:57;3.05;;;2.28;;
54899;SDS011;40801;41.924;25.562;2023-05-07T11:43:27;2.17;;;1.58;;
54899;SDS011;40801;41.924;25.562;2023-05-07T11:45:53;3.33;;;2.60;;
54899;SDS011;40801;41.924;25.562;2023-05-07T11:48:19;2.65;;;2.28;;
54899;SDS011;40801;41.924;25.562;2023-05-07T11:50:53;3.78;;;2.33;;
54899;SDS011;40801;41.924;25.562;2023-05-07T11:55:56;2.47;;;2.03;;
54899;SDS011;40801;41.924;25.562;2023-05-07T11:58:23;2.47;;;2.25;;
54899;SDS011;40801;41.924;25.562;2023-05-07T12:00:53;4.30;;;2.20;;
54899;SDS011;40801;41.924;25.562;2023-05-07T12:03:19;2.75;;;2.10;;
54899;SDS011;40801;41.924;25.562;2023-05-07T12:05:45;4.45;;;2.25;;
54899;SDS011;40801;41.924;25.562;2023-05-07T12:08:14;2.08;;;1.90;;
54899;SDS011;40801;41.924;25.562;2023-05-07T12:10:41;1.92;;;1.77;;
54899;SDS011;40801;41.924;25.562;2023-05-07T12:13:16;2.38;;;1.77;;
54899;SDS011;40801;41.924;25.562;2023-05-07T12:15:43;3.83;;;2.00;;
54899;SDS011;40801;41.924;25.562;2023-05-07T12:18:08;3.80;;;2.28;;
54899;SDS011;40801;41.924;25.562;2023-05-07T12:20:36;5.38;;;4.90;;
54899;SDS011;40801;41.924;25.562;2023-05-07T12:23:02;2.15;;;1.80;;
54899;SDS011;40801;41.924;25.562;2023-05-07T12:25:31;5.40;;;2.00;;
54899;SDS011;40801;41.924;25.562;2023-05-07T12:28:00;2.88;;;2.28;;
54899;SDS011;40801;41.924;25.562;2023-05-07T12:30:25;2.72;;;1.77;;
54899;SDS011;40801;41.924;25.562;2023-05-07T12:32:55;3.75;;;2.15;;
54899;SDS011;40801;41.924;25.562;2023-05-07T12:35:30;2.08;;;1.98;;
54899;SDS011;40801;41.924;25.562;2023-05-07T12:38:00;1.80;;;1.70;;
54899;SDS011;40801;41.924;25.562;2023-05-07T12:41:02;2.20;;;2.00;;
54899;SDS011;40801;41.924;25.562;2023-05-07T12:43:21;4.55;;;1.98;;
54899;SDS011;40801;41.924;25.562;2023-05-07T12:45:51;3.63;;;1.95;;
54899;SDS011;40801;41.924;25.562;2023-05-07T12:50:44;3.38;;;1.70;;
54899;SDS011;40801;41.924;25.562;2023-05-07T12:53:10;2.03;;;1.83;;
54899;SDS011;40801;41.924;25.562;2023-05-07T12:55:49;3.55;;;2.17;;
54899;SDS011;40801;41.924;25.562;2023-05-07T12:58:18;2.20;;;2.10;;
54899;SDS011;40801;41.924;25.562;2023-05-07T13:03:15;2.20;;;2.00;;
54899;SDS011;40801;41.924;25.562;2023-05-07T13:05:46;2.40;;;2.20;;
54899;SDS011;40801;41.924;25.562;2023-05-07T13:08:12;2.30;;;2.10;;
54899;SDS011;40801;41.924;25.562;2023-05-07T13:10:37;2.15;;;1.95;;
54899;SDS011;40801;41.924;25.562;2023-05-07T13:13:03;2.45;;;2.15;;
54899;SDS011;40801;41.924;25.562;2023-05-07T13:15:28;1.55;;;1.42;;
54899;SDS011;40801;41.924;25.562;2023-05-07T13:17:54;2.35;;;1.80;;
54899;SDS011;40801;41.924;25.562;2023-05-07T13:20:20;3.45;;;1.95;;
54899;SDS011;40801;41.924;25.562;2023-05-07T13:22:45;9.57;;;8.68;;
54899;SDS011;40801;41.924;25.562;2023-05-07T13:25:10;3.25;;;2.95;;
54899;SDS011;40801;41.924;25.562;2023-05-07T13:27:36;2.92;;;2.20;;
54899;SDS011;40801;41.924;25.562;2023-05-07T13:30:02;1.75;;;1.65;;
54899;SDS011;40801;41.924;25.562;2023-05-07T13:32:29;1.83;;;1.73;;
54899;SDS011;40801;41.924;25.562;2023-05-07T13:34:55;3.63;;;2.00;;
54899;SDS011;40801;41.924;25.562;2023-05-07T13:37:20;2.38;;;2.00;;
54899;SDS011;40801;41.924;25.562;2023-05-07T13:39:46;2.30;;;2.10;;
54899;SDS011;40801;41.924;25.562;2023-05-07T13:42:11;2.38;;;1.80;;
54899;SDS011;40801;41.924;25.562;2023-05-07T13:44:36;3.60;;;2.22;;
54899;SDS011;40801;41.924;25.562;2023-05-07T13:47:02;3.30;;;2.75;;
54899;SDS011;40801;41.924;25.562;2023-05-07T13:49:27;2.08;;;1.70;;
54899;SDS011;40801;41.924;25.562;2023-05-07T13:51:53;1.92;;;1.63;;
54899;SDS011;40801;41.924;25.562;2023-05-07T13:54:18;2.45;;;2.30;;
54899;SDS011;40801;41.924;25.562;2023-05-07T13:56:43;4.78;;;4.35;;
54899;SDS011;40801;41.924;25.562;2023-05-07T13:59:09;13.23;;;11.88;;
54899;SDS011;40801;41.924;25.562;2023-05-07T14:01:34;3.78;;;2.67;;
54899;SDS011;40801;41.924;25.562;2023-05-07T14:04:00;3.75;;;2.30;;
54899;SDS011;40801;41.924;25.562;2023-05-07T14:06:25;2.30;;;1.98;;
54899;SDS011;40801;41.924;25.562;2023-05-07T14:08:51;3.13;;;2.50;;
54899;SDS011;40801;41.924;25.562;2023-05-07T14:11:16;3.45;;;2.75;;
54899;SDS011;40801;41.924;25.562;2023-05-07T14:13:42;2.15;;;1.88;;
54899;SDS011;40801;41.924;25.562;2023-05-07T14:16:07;2.30;;;1.95;;
54899;SDS011;40801;41.924;25.562;2023-05-07T14:18:33;3.88;;;3.33;;
54899;SDS011;40801;41.924;25.562;2023-05-07T14:20:59;2.30;;;2.03;;
54899;SDS011;40801;41.924;25.562;2023-05-07T14:23:24;2.63;;;2.42;;
54899;SDS011;40801;41.924;25.562;2023-05-07T14:25:51;3.63;;;2.00;;
54899;SDS011;40801;41.924;25.562;2023-05-07T14:28:18;2.58;;;1.90;;
54899;SDS011;40801;41.924;25.562;2023-05-07T14:30:43;3.35;;;2.05;;
54899;SDS011;40801;41.924;25.562;2023-05-07T14:33:09;4.60;;;4.20;;
54899;SDS011;40801;41.924;25.562;2023-05-07T14:35:34;22.23;;;20.13;;
54899;SDS011;40801;41.924;25.562;2023-05-07T14:38:00;1.95;;;1.75;;
54899;SDS011;40801;41.924;25.562;2023-05-07T14:40:25;2.90;;;2.65;;
54899;SDS011;40801;41.924;25.562;2023-05-07T14:42:51;4.32;;;3.47;;
54899;SDS011;40801;41.924;25.562;2023-05-07T14:45:16;2.00;;;1.90;;
54899;SDS011;40801;41.924;25.562;2023-05-07T14:47:42;2.10;;;2.00;;
54899;SDS011;40801;41.924;25.562;2023-05-07T14:50:07;2.33;;;2.13;;
54899;SDS011;40801;41.924;25.562;2023-05-07T14:52:33;4.45;;;1.98;;
54899;SDS011;40801;41.924;25.562;2023-05-07T14:54:58;8.27;;;6.97;;
54899;SDS011;40801;41.924;25.562;2023-05-07T14:57:24;3.15;;;2.00;;